createdAt,value
2022-11-07T00:00:50.286Z,31.24
2022-11-07T00:01:52.480Z,30.98
2022-11-07T00:02:54.634Z,30.72
2022-11-07T00:03:56.960Z,31.16
2022-11-07T00:04:58.724Z,30.87
2022-11-07T00:06:00.499Z,31.17
2022-11-07T00:07:02.767Z,31.29
2022-11-07T00:08:04.875Z,31.54
2022-11-07T00:09:06.653Z,31.39
2022-11-07T00:10:08.730Z,30.77
2022-11-07T00:11:10.502Z,30.82
2022-11-07T00:12:12.270Z,31.08
2022-11-07T00:13:14.388Z,31.55
2022-11-07T00:14:17.485Z,30.85
2022-11-07T00:15:19.354Z,31.13
2022-11-07T00:16:21.209Z,30.90
2022-11-07T00:17:23.019Z,31.10
2022-11-07T00:18:24.936Z,31.63
2022-11-07T00:19:26.850Z,31.37
2022-11-07T00:20:28.636Z,31.18
2022-11-07T00:21:30.582Z,30.84
2022-11-07T00:22:32.474Z,31.34
2022-11-07T00:23:35.027Z,31.10
2022-11-07T00:24:36.891Z,31.24
2022-11-07T00:25:38.766Z,31.00
2022-11-07T00:26:40.817Z,31.06
2022-11-07T00:27:43.350Z,31.33
2022-11-07T00:28:45.449Z,31.62
2022-11-07T00:29:47.462Z,31.26
2022-11-07T00:30:49.225Z,31.10
2022-11-07T00:31:51.122Z,31.24
2022-11-07T00:32:56.379Z,31.20
2022-11-07T00:34:01.710Z,30.76
2022-11-07T00:35:03.669Z,31.46
2022-11-07T00:36:05.804Z,30.94
2022-11-07T00:37:08.033Z,30.75
2022-11-07T00:38:09.933Z,30.92
2022-11-07T00:39:12.157Z,31.55
2022-11-07T00:40:13.939Z,31.32
2022-11-07T00:41:16.426Z,30.86
2022-11-07T00:42:18.258Z,30.92
2022-11-07T00:43:20.061Z,31.64
2022-11-07T00:44:22.841Z,31.07
2022-11-07T00:45:24.704Z,31.29
2022-11-07T00:46:26.552Z,31.63
2022-11-07T00:47:28.401Z,31.45
2022-11-07T00:48:31.276Z,30.93
2022-11-07T00:49:33.198Z,31.65
2022-11-07T00:50:34.957Z,30.80
2022-11-07T00:51:36.995Z,31.25
2022-11-07T00:52:38.801Z,31.03
2022-11-07T00:53:41.104Z,31.64
2022-11-07T00:54:42.938Z,30.91
2022-11-07T00:55:45.035Z,31.54
2022-11-07T00:56:46.801Z,31.37
2022-11-07T00:57:48.614Z,31.40
2022-11-07T00:58:55.067Z,31.27
2022-11-07T00:59:56.877Z,31.59
2022-11-07T01:00:59.477Z,30.96
2022-11-07T01:02:01.378Z,31.45
2022-11-07T01:03:30.004Z,31.35
2022-11-07T01:04:50.684Z,30.98
2022-11-07T01:06:00.705Z,31.52
2022-11-07T01:07:02.801Z,30.90
2022-11-07T01:08:05.522Z,31.11
2022-11-07T01:09:09.366Z,31.00
2022-11-07T01:10:11.143Z,31.24
2022-11-07T01:11:13.397Z,31.70
2022-11-07T01:12:15.172Z,30.92
2022-11-07T01:13:17.382Z,31.22
2022-11-07T01:14:21.693Z,31.29
2022-11-07T01:15:23.548Z,31.56
2022-11-07T01:16:26.896Z,31.69
2022-11-07T01:17:28.770Z,31.54
2022-11-07T01:18:30.653Z,31.53
2022-11-07T01:19:32.427Z,31.36
2022-11-07T01:20:34.252Z,31.45
2022-11-07T01:21:38.573Z,31.60
2022-11-07T01:22:40.500Z,31.04
2022-11-07T01:23:42.815Z,31.77
2022-11-07T01:24:44.877Z,31.08
2022-11-07T01:25:46.637Z,31.86
2022-11-07T01:26:48.979Z,31.04
2022-11-07T01:27:50.786Z,31.86
2022-11-07T01:28:52.658Z,31.78
2022-11-07T01:29:54.436Z,31.44
2022-11-07T01:30:56.213Z,31.28
2022-11-07T01:31:57.976Z,31.56
2022-11-07T01:32:59.805Z,31.70
2022-11-07T01:34:02.453Z,31.04
2022-11-07T01:35:04.621Z,31.10
2022-11-07T01:36:09.477Z,31.14
2022-11-07T01:37:11.573Z,31.28
2022-11-07T01:38:13.416Z,31.33
2022-11-07T01:39:15.520Z,31.76
2022-11-07T01:40:17.393Z,31.65
2022-11-07T01:41:25.647Z,31.60
2022-11-07T01:42:27.636Z,31.56
2022-11-07T01:43:42.873Z,31.10
2022-11-07T01:44:51.465Z,31.65
2022-11-07T01:45:53.297Z,31.13
2022-11-07T01:46:59.396Z,31.32
2022-11-07T01:48:03.239Z,31.83
2022-11-07T01:49:20.296Z,31.44
2022-11-07T01:50:24.876Z,31.17
2022-11-07T01:51:28.601Z,31.36
2022-11-07T01:52:35.587Z,31.80
2022-11-07T01:53:38.163Z,31.53
2022-11-07T01:54:56.009Z,31.30
2022-11-07T01:55:57.878Z,31.36
2022-11-07T01:57:06.929Z,31.11
2022-11-07T01:58:09.605Z,30.95
2022-11-07T01:59:20.005Z,31.58
2022-11-07T02:00:25.211Z,31.63
2022-11-07T02:01:27.344Z,31.26
2022-11-07T02:02:29.348Z,31.00
2022-11-07T02:03:31.302Z,31.18
2022-11-07T02:04:33.158Z,31.32
2022-11-07T02:05:37.689Z,31.17
2022-11-07T02:06:45.546Z,31.88
2022-11-07T02:07:47.518Z,30.93
2022-11-07T02:08:50.774Z,31.57
2022-11-07T02:09:53.828Z,31.63
2022-11-07T02:11:00.148Z,31.59
2022-11-07T02:12:02.781Z,31.32
2022-11-07T02:13:05.306Z,31.50
2022-11-07T02:14:07.119Z,31.21
2022-11-07T02:15:10.274Z,31.35
2022-11-07T02:16:12.110Z,31.04
2022-11-07T02:17:16.206Z,31.60
2022-11-07T02:18:17.992Z,31.03
2022-11-07T02:19:48.080Z,31.35
2022-11-07T02:20:52.369Z,31.48
2022-11-07T02:21:58.072Z,31.29
2022-11-07T02:23:27.488Z,31.27
2022-11-07T02:24:33.513Z,31.40
2022-11-07T02:25:35.881Z,31.18
2022-11-07T02:26:39.669Z,30.97
2022-11-07T02:27:43.255Z,31.66
2022-11-07T02:28:47.997Z,31.61
2022-11-07T02:29:56.105Z,31.88
2022-11-07T02:30:57.781Z,31.17
2022-11-07T02:32:04.512Z,31.48
2022-11-07T02:33:18.264Z,31.77
2022-11-07T02:34:19.948Z,31.15
2022-11-07T02:35:42.588Z,31.36
2022-11-07T02:36:44.457Z,31.38
2022-11-07T02:37:46.226Z,30.99
2022-11-07T02:38:51.772Z,31.31
2022-11-07T02:39:53.796Z,31.15
2022-11-07T02:41:12.224Z,31.54
2022-11-07T02:42:14.157Z,31.44
2022-11-07T02:43:20.088Z,31.22
2022-11-07T02:44:22.597Z,31.72
2022-11-07T02:45:32.731Z,31.60
2022-11-07T02:46:35.357Z,31.09
2022-11-07T02:47:37.106Z,31.90
2022-11-07T02:48:45.361Z,31.67
2022-11-07T02:49:47.045Z,31.84
2022-11-07T02:50:48.758Z,31.01
2022-11-07T02:51:50.578Z,31.27
2022-11-07T02:52:52.316Z,31.27
2022-11-07T02:53:54.556Z,31.69
2022-11-07T02:54:56.367Z,31.64
2022-11-07T02:55:58.090Z,31.03
2022-11-07T02:56:59.761Z,31.22
2022-11-07T02:58:01.522Z,31.85
2022-11-07T02:59:03.385Z,31.39
2022-11-07T03:00:07.645Z,31.69
2022-11-07T03:01:09.563Z,31.21
2022-11-07T03:02:11.451Z,31.74
2022-11-07T03:03:14.192Z,31.36
2022-11-07T03:04:16.168Z,31.85
2022-11-07T03:05:19.574Z,31.22
2022-11-07T03:06:24.677Z,31.32
2022-11-07T03:07:26.633Z,31.17
2022-11-07T03:08:29.158Z,31.66
2022-11-07T03:09:30.896Z,31.34
2022-11-07T03:10:32.794Z,31.76
2022-11-07T03:11:34.509Z,31.55
2022-11-07T03:12:36.869Z,31.56
2022-11-07T03:13:38.968Z,31.71
2022-11-07T03:14:40.673Z,31.71
2022-11-07T03:15:42.422Z,31.69
2022-11-07T03:16:44.184Z,31.23
2022-11-07T03:17:45.906Z,31.72
2022-11-07T03:18:48.109Z,31.21
2022-11-07T03:19:49.873Z,31.30
2022-11-07T03:20:51.607Z,31.32
2022-11-07T03:21:53.347Z,31.70
2022-11-07T03:22:55.102Z,31.44
2022-11-07T03:23:56.780Z,31.33
2022-11-07T03:24:58.516Z,31.87
2022-11-07T03:26:00.489Z,31.76
2022-11-07T03:27:02.222Z,31.23
2022-11-07T03:28:04.679Z,31.65
2022-11-07T03:29:06.681Z,32.03
2022-11-07T03:30:08.956Z,31.33
2022-11-07T03:31:10.777Z,31.99
2022-11-07T03:32:12.696Z,31.68
2022-11-07T03:33:14.606Z,31.94
2022-11-07T03:34:16.505Z,31.80
2022-11-07T03:35:18.254Z,31.54
2022-11-07T03:36:19.916Z,31.28
2022-11-07T03:37:21.580Z,31.44
2022-11-07T03:38:23.429Z,32.07
2022-11-07T03:39:26.113Z,31.30
2022-11-07T03:40:27.890Z,31.75
2022-11-07T03:41:29.609Z,31.49
2022-11-07T03:42:31.418Z,31.39
2022-11-07T03:43:33.240Z,31.93
2022-11-07T03:44:34.917Z,31.45
2022-11-07T03:45:36.629Z,31.48
2022-11-07T03:46:38.361Z,31.97
2022-11-07T03:47:42.122Z,31.76
2022-11-07T03:48:44.090Z,31.34
2022-11-07T03:49:45.794Z,31.42
2022-11-07T03:50:47.549Z,31.49
2022-11-07T03:51:49.279Z,31.77
2022-11-07T03:52:51.080Z,31.87
2022-11-07T03:53:53.022Z,31.59
2022-11-07T03:54:54.963Z,31.50
2022-11-07T03:55:57.058Z,31.75
2022-11-07T03:56:58.816Z,31.91
2022-11-07T03:58:00.647Z,31.88
2022-11-07T03:59:02.623Z,32.26
2022-11-07T04:00:06.013Z,31.87
2022-11-07T04:01:13.703Z,31.48
2022-11-07T04:02:15.622Z,31.31
2022-11-07T04:03:17.822Z,32.12
2022-11-07T04:04:19.681Z,31.58
2022-11-07T04:05:21.519Z,31.63
2022-11-07T04:06:23.730Z,32.02
2022-11-07T04:07:25.453Z,31.51
2022-11-07T04:08:27.256Z,32.14
2022-11-07T04:09:29.094Z,31.70
2022-11-07T04:10:31.053Z,32.06
2022-11-07T04:11:51.218Z,31.69
2022-11-07T04:13:11.381Z,31.70
2022-11-07T04:14:31.720Z,31.25
2022-11-07T04:15:51.929Z,31.40
2022-11-07T04:17:12.148Z,31.19
2022-11-07T04:18:13.914Z,31.39
2022-11-07T04:19:15.732Z,31.25
2022-11-07T04:20:17.457Z,31.82
2022-11-07T04:21:19.119Z,31.79
2022-11-07T04:22:20.793Z,31.57
2022-11-07T04:23:22.502Z,31.76
2022-11-07T04:24:24.162Z,31.70
2022-11-07T04:25:44.409Z,32.12
2022-11-07T04:27:04.706Z,31.74
2022-11-07T04:28:06.386Z,31.45
2022-11-07T04:29:08.182Z,31.67
2022-11-07T04:30:26.865Z,32.10
2022-11-07T04:31:28.821Z,31.43
2022-11-07T04:32:30.567Z,31.61
2022-11-07T04:33:32.389Z,31.34
2022-11-07T04:34:34.173Z,31.46
2022-11-07T04:35:35.848Z,32.15
2022-11-07T04:36:37.517Z,31.93
2022-11-07T04:37:39.312Z,31.55
2022-11-07T04:38:41.003Z,32.22
2022-11-07T04:39:42.662Z,31.55
2022-11-07T04:40:44.446Z,32.34
2022-11-07T04:41:46.122Z,31.47
2022-11-07T04:42:49.097Z,31.53
2022-11-07T04:43:51.357Z,31.31
2022-11-07T04:44:53.017Z,31.56
2022-11-07T04:45:54.784Z,31.97
2022-11-07T04:46:56.453Z,31.99
2022-11-07T04:47:58.165Z,31.78
2022-11-07T04:48:59.867Z,32.26
2022-11-07T04:50:01.646Z,31.69
2022-11-07T04:51:03.421Z,31.89
2022-11-07T04:52:05.182Z,31.98
2022-11-07T04:53:06.882Z,31.93
2022-11-07T04:54:13.384Z,31.85
2022-11-07T04:55:24.783Z,31.49
2022-11-07T04:56:30.479Z,32.00
2022-11-07T04:57:35.039Z,31.98
2022-11-07T04:58:36.897Z,31.93
2022-11-07T04:59:38.700Z,32.16
2022-11-07T05:00:40.384Z,31.76
2022-11-07T05:01:42.149Z,31.99
2022-11-07T05:02:44.074Z,32.01
2022-11-07T05:03:45.798Z,31.66
2022-11-07T05:04:47.502Z,32.04
2022-11-07T05:05:49.187Z,31.59
2022-11-07T05:06:50.890Z,31.66
2022-11-07T05:07:52.618Z,31.80
2022-11-07T05:08:54.385Z,31.31
2022-11-07T05:09:56.201Z,32.18
2022-11-07T05:10:57.952Z,31.72
2022-11-07T05:11:59.854Z,32.10
2022-11-07T05:13:01.615Z,31.72
2022-11-07T05:14:03.293Z,32.04
2022-11-07T05:15:05.457Z,31.36
2022-11-07T05:16:14.968Z,31.49
2022-11-07T05:17:17.191Z,32.07
2022-11-07T05:18:21.207Z,31.69
2022-11-07T05:19:23.042Z,31.51
2022-11-07T05:20:51.148Z,31.89
2022-11-07T05:22:12.831Z,31.80
2022-11-07T05:23:21.453Z,31.39
2022-11-07T05:24:23.217Z,31.33
2022-11-07T05:25:24.994Z,31.61
2022-11-07T05:26:26.733Z,31.72
2022-11-07T05:27:28.553Z,31.29
2022-11-07T05:28:38.642Z,32.08
2022-11-07T05:29:41.433Z,31.48
2022-11-07T05:30:45.171Z,31.36
2022-11-07T05:31:46.950Z,32.06
2022-11-07T05:32:48.659Z,31.61
2022-11-07T05:33:50.364Z,31.20
2022-11-07T05:34:52.105Z,31.65
2022-11-07T05:35:53.835Z,31.23
2022-11-07T05:36:55.565Z,31.83
2022-11-07T05:37:57.418Z,31.87
2022-11-07T05:38:59.129Z,31.43
2022-11-07T05:40:00.824Z,31.86
2022-11-07T05:41:04.410Z,32.00
2022-11-07T05:42:06.574Z,31.85
2022-11-07T05:43:10.798Z,31.38
2022-11-07T05:44:12.475Z,31.83
2022-11-07T05:45:14.790Z,31.55
2022-11-07T05:46:16.451Z,31.45
2022-11-07T05:47:18.203Z,31.89
2022-11-07T05:48:20.184Z,31.98
2022-11-07T05:49:21.846Z,31.39
2022-11-07T05:50:23.530Z,31.28
2022-11-07T05:51:25.286Z,31.89
2022-11-07T05:52:26.989Z,31.34
2022-11-07T05:53:29.430Z,31.45
2022-11-07T05:54:33.126Z,31.49
2022-11-07T05:55:34.929Z,32.01
2022-11-07T05:56:37.632Z,31.57
2022-11-07T05:57:39.397Z,31.35
2022-11-07T05:58:41.135Z,31.48
2022-11-07T05:59:42.884Z,31.59
2022-11-07T06:00:45.044Z,32.01
2022-11-07T06:01:50.951Z,31.54
2022-11-07T06:02:57.616Z,31.60
2022-11-07T06:03:59.493Z,31.28
2022-11-07T06:05:01.253Z,31.28
2022-11-07T06:06:02.939Z,31.30
2022-11-07T06:07:04.740Z,32.18
2022-11-07T06:08:07.973Z,31.39
2022-11-07T06:09:09.823Z,31.36
2022-11-07T06:10:11.565Z,31.75
2022-11-07T06:11:13.309Z,32.08
2022-11-07T06:12:15.110Z,31.40
2022-11-07T06:13:17.402Z,32.03
2022-11-07T06:14:19.427Z,31.99
2022-11-07T06:15:21.090Z,31.58
2022-11-07T06:16:22.866Z,31.45
2022-11-07T06:17:24.620Z,31.61
2022-11-07T06:18:26.340Z,31.79
2022-11-07T06:19:28.026Z,31.04
2022-11-07T06:20:30.718Z,31.19
2022-11-07T06:21:32.502Z,30.89
2022-11-07T06:22:34.213Z,30.90
2022-11-07T06:23:35.960Z,31.11
2022-11-07T06:24:37.621Z,31.16
2022-11-07T06:25:39.666Z,31.46
2022-11-07T06:26:41.920Z,31.17
2022-11-07T06:27:43.689Z,31.39
2022-11-07T06:28:45.457Z,30.59
2022-11-07T06:29:47.134Z,30.92
2022-11-07T06:30:48.836Z,30.60
2022-11-07T06:31:50.518Z,31.10
2022-11-07T06:32:52.257Z,30.74
2022-11-07T06:33:53.934Z,30.90
2022-11-07T06:34:55.654Z,30.49
2022-11-07T06:36:05.470Z,30.61
2022-11-07T06:37:07.579Z,30.88
2022-11-07T06:38:10.803Z,29.90
2022-11-07T06:39:12.679Z,29.86
2022-11-07T06:40:14.449Z,30.60
2022-11-07T06:41:16.279Z,30.58
2022-11-07T06:42:17.971Z,30.23
2022-11-07T06:43:20.400Z,30.21
2022-11-07T06:44:22.461Z,30.39
2022-11-07T06:45:24.203Z,29.61
2022-11-07T06:46:26.165Z,29.68
2022-11-07T06:47:28.678Z,30.08
2022-11-07T06:48:30.764Z,29.71
2022-11-07T06:49:32.600Z,29.70
2022-11-07T06:50:35.159Z,30.02
2022-11-07T06:51:36.996Z,29.49
2022-11-07T06:52:38.699Z,29.57
2022-11-07T06:53:40.748Z,29.44
2022-11-07T06:54:43.388Z,29.97
2022-11-07T06:55:45.047Z,29.88
2022-11-07T06:56:46.766Z,29.89
2022-11-07T06:57:48.689Z,29.07
2022-11-07T06:58:50.828Z,29.10
2022-11-07T06:59:52.594Z,29.02
2022-11-07T07:01:04.039Z,29.42
2022-11-07T07:02:05.891Z,29.57
2022-11-07T07:03:07.699Z,28.87
2022-11-07T07:04:11.497Z,28.90
2022-11-07T07:05:17.118Z,29.26
2022-11-07T07:06:21.767Z,29.13
2022-11-07T07:07:23.590Z,29.50
2022-11-07T07:08:25.293Z,29.68
2022-11-07T07:09:28.411Z,28.82
2022-11-07T07:10:30.327Z,29.14
2022-11-07T07:11:32.185Z,29.56
2022-11-07T07:12:34.767Z,29.49
2022-11-07T07:13:36.942Z,29.13
2022-11-07T07:14:38.634Z,29.08
2022-11-07T07:15:50.515Z,29.19
2022-11-07T07:16:53.069Z,29.46
2022-11-07T07:17:58.653Z,29.03
2022-11-07T07:19:00.448Z,28.82
2022-11-07T07:20:02.206Z,29.36
2022-11-07T07:21:11.395Z,29.37
2022-11-07T07:22:14.090Z,28.85
2022-11-07T07:23:17.817Z,29.23
2022-11-07T07:24:19.790Z,29.34
2022-11-07T07:25:21.774Z,29.40
2022-11-07T07:26:23.436Z,29.53
2022-11-07T07:27:25.138Z,29.20
2022-11-07T07:28:26.818Z,28.91
2022-11-07T07:29:28.497Z,28.68
2022-11-07T07:30:30.465Z,29.00
2022-11-07T07:31:32.431Z,29.29
2022-11-07T07:32:37.090Z,28.99
2022-11-07T07:33:39.119Z,29.16
2022-11-07T07:34:40.918Z,28.72
2022-11-07T07:35:42.733Z,29.33
2022-11-07T07:36:44.393Z,28.58
2022-11-07T07:37:50.760Z,29.17
2022-11-07T07:38:52.743Z,28.94
2022-11-07T07:39:54.500Z,28.48
2022-11-07T07:40:58.094Z,28.59
2022-11-07T07:41:59.782Z,28.94
2022-11-07T07:43:01.481Z,29.35
2022-11-07T07:44:03.269Z,28.65
2022-11-07T07:45:05.334Z,28.74
2022-11-07T07:46:08.449Z,28.99
2022-11-07T07:47:11.533Z,28.97
2022-11-07T07:48:13.476Z,28.60
2022-11-07T07:49:15.477Z,28.78
2022-11-07T07:50:17.226Z,29.15
2022-11-07T07:51:18.894Z,28.46
2022-11-07T07:52:20.688Z,28.80
2022-11-07T07:53:22.463Z,28.79
2022-11-07T07:54:24.209Z,29.11
2022-11-07T07:55:26.057Z,28.82
2022-11-07T07:56:28.044Z,28.94
2022-11-07T07:57:29.877Z,28.60
2022-11-07T07:58:31.550Z,28.75
2022-11-07T07:59:33.424Z,29.12
2022-11-07T08:00:35.864Z,28.79
2022-11-07T08:01:37.862Z,28.98
2022-11-07T08:02:43.620Z,28.82
2022-11-07T08:04:00.818Z,28.39
2022-11-07T08:05:04.050Z,28.67
2022-11-07T08:06:06.093Z,29.24
2022-11-07T08:07:08.222Z,28.82
2022-11-07T08:08:10.056Z,28.59
2022-11-07T08:09:11.830Z,29.13
2022-11-07T08:10:39.619Z,28.91
2022-11-07T08:11:35.658Z,28.73
2022-11-07T08:12:37.330Z,28.65
2022-11-07T08:13:39.142Z,28.75
2022-11-07T08:14:40.788Z,29.30
2022-11-07T08:15:42.494Z,28.87
2022-11-07T08:16:44.305Z,28.46
2022-11-07T08:17:46.489Z,28.39
2022-11-07T08:18:48.253Z,29.20
2022-11-07T08:19:50.083Z,28.47
2022-11-07T08:20:54.014Z,28.61
2022-11-07T08:21:55.720Z,28.91
2022-11-07T08:23:15.767Z,28.91
2022-11-07T08:24:18.425Z,28.77
2022-11-07T08:25:20.116Z,28.71
2022-11-07T08:26:21.835Z,28.54
2022-11-07T08:27:23.605Z,29.00
2022-11-07T08:28:27.573Z,28.98
2022-11-07T08:29:29.321Z,29.08
2022-11-07T08:30:31.847Z,28.45
2022-11-07T08:31:33.587Z,29.22
2022-11-07T08:32:35.387Z,29.25
2022-11-07T08:33:37.293Z,29.01
2022-11-07T08:34:39.286Z,29.16
2022-11-07T08:35:42.705Z,29.34
2022-11-07T08:36:44.659Z,28.79
2022-11-07T08:37:46.336Z,28.64
2022-11-07T08:38:48.084Z,28.61
2022-11-07T08:39:49.866Z,29.32
2022-11-07T08:40:52.330Z,28.55
2022-11-07T08:41:53.994Z,28.80
2022-11-07T08:43:00.577Z,28.85
2022-11-07T08:44:02.241Z,28.76
2022-11-07T08:45:04.358Z,29.32
2022-11-07T08:46:06.282Z,29.13
2022-11-07T08:47:08.742Z,29.32
2022-11-07T08:48:10.689Z,28.77
2022-11-07T08:49:12.481Z,28.99
2022-11-07T08:50:14.234Z,29.29
2022-11-07T08:51:15.990Z,28.90
2022-11-07T08:52:18.051Z,28.54
2022-11-07T08:53:20.390Z,28.81
2022-11-07T08:54:22.378Z,29.06
2022-11-07T08:55:24.263Z,28.76
2022-11-07T08:56:26.058Z,28.76
2022-11-07T08:57:27.742Z,29.20
2022-11-07T08:58:30.312Z,28.75
2022-11-07T08:59:32.263Z,28.61
2022-11-07T09:00:35.144Z,29.35
2022-11-07T09:01:55.931Z,29.01
2022-11-07T09:04:30.258Z,28.52
2022-11-07T09:05:32.381Z,29.30
2022-11-07T09:06:34.056Z,28.49
2022-11-07T09:07:38.721Z,28.95
2022-11-07T09:08:41.153Z,28.70
2022-11-07T09:09:42.890Z,29.23
2022-11-07T09:10:44.662Z,29.17
2022-11-07T09:11:46.348Z,28.48
2022-11-07T09:12:49.871Z,28.90
2022-11-07T09:13:53.237Z,29.26
2022-11-07T09:14:55.021Z,28.71
2022-11-07T09:16:04.750Z,29.05
2022-11-07T09:17:06.483Z,28.49
2022-11-07T09:18:08.211Z,28.94
2022-11-07T09:19:10.025Z,28.57
2022-11-07T09:20:11.879Z,29.07
2022-11-07T09:21:17.660Z,28.81
2022-11-07T09:22:22.562Z,28.82
2022-11-07T09:23:25.275Z,28.79
2022-11-07T09:24:27.090Z,29.12
2022-11-07T09:25:28.836Z,28.60
2022-11-07T09:26:30.822Z,28.93
2022-11-07T09:27:32.518Z,28.63
2022-11-07T09:28:34.832Z,28.68
2022-11-07T09:29:36.602Z,28.44
2022-11-07T09:30:38.334Z,28.71
2022-11-07T09:31:40.102Z,29.36
2022-11-07T09:32:45.757Z,29.25
2022-11-07T09:33:47.811Z,28.60
2022-11-07T09:34:55.957Z,29.21
2022-11-07T09:36:04.845Z,28.54
2022-11-07T09:37:06.710Z,29.20
2022-11-07T09:38:08.469Z,28.87
2022-11-07T09:39:10.160Z,28.93
2022-11-07T09:40:24.669Z,28.79
2022-11-07T09:41:41.686Z,28.37
2022-11-07T09:42:57.249Z,28.88
2022-11-07T09:44:37.455Z,28.34
2022-11-07T09:45:51.681Z,28.55
2022-11-07T09:47:07.010Z,28.82
2022-11-07T09:48:17.494Z,29.13
2022-11-07T09:49:29.564Z,28.33
2022-11-07T09:50:39.256Z,28.87
2022-11-07T09:51:46.731Z,29.05
2022-11-07T09:52:55.074Z,28.91
2022-11-07T09:54:03.315Z,29.04
2022-11-07T09:55:09.338Z,28.52
2022-11-07T09:56:13.197Z,29.04
2022-11-07T09:57:17.667Z,28.88
2022-11-07T09:58:41.962Z,28.75
2022-11-07T09:59:53.222Z,28.51
2022-11-07T10:00:59.929Z,29.25
2022-11-07T10:02:04.147Z,28.95
2022-11-07T10:03:08.728Z,29.26
2022-11-07T10:04:27.340Z,29.38
2022-11-07T10:05:54.598Z,29.19
2022-11-07T10:07:03.417Z,28.82
2022-11-07T10:08:49.444Z,28.88
2022-11-07T10:10:31.590Z,28.38
2022-11-07T10:11:39.168Z,28.60
2022-11-07T10:13:05.105Z,28.43
2022-11-07T10:14:35.856Z,28.62
2022-11-07T10:15:48.493Z,28.47
2022-11-07T10:17:00.459Z,29.03
2022-11-07T10:18:35.090Z,29.04
2022-11-07T10:20:10.756Z,28.39
2022-11-07T10:21:39.283Z,28.97
2022-11-07T10:23:07.784Z,28.40
2022-11-07T10:24:37.770Z,28.58
2022-11-07T10:25:50.337Z,29.02
2022-11-07T10:26:53.038Z,29.16
2022-11-07T10:28:16.957Z,29.19
2022-11-07T10:29:20.811Z,29.02
2022-11-07T10:30:22.645Z,28.74
2022-11-07T10:31:28.234Z,29.03
2022-11-07T10:32:54.154Z,28.90
2022-11-07T10:34:02.619Z,28.55
2022-11-07T10:35:27.190Z,29.11
2022-11-07T10:36:31.577Z,28.99
2022-11-07T10:37:33.267Z,28.79
2022-11-07T10:38:35.737Z,28.55
2022-11-07T10:39:37.581Z,28.50
2022-11-07T10:40:41.699Z,28.80
2022-11-07T10:41:58.844Z,28.70
2022-11-07T10:43:03.326Z,28.67
2022-11-07T10:44:10.367Z,28.85
2022-11-07T10:45:14.480Z,29.30
2022-11-07T10:46:27.419Z,28.73
2022-11-07T10:47:29.158Z,28.72
2022-11-07T10:48:31.247Z,28.96
2022-11-07T10:49:33.173Z,28.65
2022-11-07T10:50:34.888Z,28.64
2022-11-07T10:51:42.118Z,29.22
2022-11-07T10:52:53.386Z,29.42
2022-11-07T10:53:55.077Z,28.65
2022-11-07T10:55:15.323Z,28.69
2022-11-07T10:56:19.587Z,28.85
2022-11-07T10:57:23.595Z,28.73
2022-11-07T10:58:30.239Z,28.57
2022-11-07T10:59:36.568Z,29.20
2022-11-07T11:00:41.440Z,28.73
2022-11-07T11:01:51.107Z,29.18
2022-11-07T11:02:54.315Z,28.72
2022-11-07T11:03:56.076Z,29.14
2022-11-07T11:05:03.215Z,29.33
2022-11-07T11:06:30.276Z,28.92
2022-11-07T11:07:37.657Z,29.27
2022-11-07T11:08:39.567Z,28.57
2022-11-07T11:09:56.762Z,29.36
2022-11-07T11:10:58.558Z,29.40
2022-11-07T11:12:13.836Z,29.44
2022-11-07T11:13:34.156Z,29.04
2022-11-07T11:14:35.827Z,28.48
2022-11-07T11:15:45.916Z,28.90
2022-11-07T11:16:53.012Z,29.30
2022-11-07T11:18:15.742Z,29.03
2022-11-07T11:19:22.586Z,28.64
2022-11-07T11:20:33.419Z,29.24
2022-11-07T11:21:46.857Z,29.41
2022-11-07T11:22:48.833Z,29.16
2022-11-07T11:23:52.172Z,28.78
2022-11-07T11:25:23.934Z,29.46
2022-11-07T11:26:30.462Z,28.55
2022-11-07T11:27:35.278Z,29.49
2022-11-07T11:28:44.352Z,29.14
2022-11-07T11:30:06.574Z,29.21
2022-11-07T11:31:37.125Z,29.31
2022-11-07T11:32:51.331Z,29.12
2022-11-07T11:34:18.868Z,28.70
2022-11-07T11:35:42.604Z,29.30
2022-11-07T11:37:02.862Z,29.21
2022-11-07T11:38:09.194Z,29.07
2022-11-07T11:39:28.666Z,29.30
2022-11-07T11:40:38.219Z,29.44
2022-11-07T11:41:50.357Z,29.12
2022-11-07T11:43:05.872Z,28.92
2022-11-07T11:44:16.556Z,28.80
2022-11-07T11:45:31.053Z,29.13
2022-11-07T11:46:54.618Z,29.01
2022-11-07T11:48:07.243Z,29.38
2022-11-07T11:49:18.030Z,28.94
2022-11-07T11:50:28.817Z,29.07
2022-11-07T11:52:02.458Z,29.15
2022-11-07T11:53:04.576Z,29.55
2022-11-07T11:54:15.217Z,29.43
2022-11-07T11:55:20.846Z,29.34
2022-11-07T11:56:46.475Z,29.59
2022-11-07T11:58:03.426Z,29.13
2022-11-07T11:59:26.310Z,29.46
2022-11-07T12:00:31.607Z,28.80
2022-11-07T12:01:55.122Z,28.73
2022-11-07T12:02:59.441Z,29.16
2022-11-07T12:04:38.695Z,29.41
2022-11-07T12:05:51.959Z,29.24
2022-11-07T12:07:06.178Z,28.85
2022-11-07T12:08:26.212Z,28.94
2022-11-07T12:09:36.533Z,28.79
2022-11-07T12:10:55.915Z,29.20
2022-11-07T12:12:08.986Z,29.23
2022-11-07T12:13:29.198Z,29.52
2022-11-07T12:14:30.889Z,29.44
2022-11-07T12:15:48.765Z,29.60
2022-11-07T12:17:08.864Z,29.61
2022-11-07T12:18:19.637Z,29.63
2022-11-07T12:19:50.723Z,29.63
2022-11-07T12:21:05.951Z,29.31
2022-11-07T12:22:26.064Z,29.57
2022-11-07T12:23:45.515Z,28.93
2022-11-07T12:24:52.909Z,28.84
2022-11-07T12:26:17.690Z,29.00
2022-11-07T12:27:51.874Z,28.76
2022-11-07T12:29:05.721Z,29.06
2022-11-07T12:30:15.952Z,29.53
2022-11-07T12:31:23.693Z,28.87
2022-11-07T12:32:53.929Z,29.72
2022-11-07T12:34:16.986Z,29.25
2022-11-07T12:35:48.673Z,29.01
2022-11-07T12:37:16.852Z,29.17
2022-11-07T12:38:33.738Z,29.44
2022-11-07T12:39:52.765Z,28.88
2022-11-07T12:41:25.030Z,28.96
2022-11-07T12:42:49.870Z,29.17
2022-11-07T12:44:20.513Z,28.79
2022-11-07T12:45:45.736Z,28.93
2022-11-07T12:46:59.877Z,29.60
2022-11-07T12:48:27.890Z,29.08
2022-11-07T12:49:59.713Z,28.86
2022-11-07T12:51:43.353Z,29.31
2022-11-07T12:53:33.473Z,29.36
2022-11-07T12:54:38.212Z,29.49
2022-11-07T12:55:48.150Z,29.52
2022-11-07T12:56:52.750Z,29.31
2022-11-07T12:57:55.416Z,29.33
2022-11-07T12:58:57.827Z,29.32
2022-11-07T13:00:31.906Z,29.47
2022-11-07T13:01:44.412Z,29.22
2022-11-07T13:02:58.056Z,29.28
2022-11-07T13:04:27.275Z,28.89
2022-11-07T13:05:50.366Z,28.86
2022-11-07T13:07:05.297Z,29.52
2022-11-07T13:08:19.401Z,29.36
2022-11-07T13:09:39.662Z,29.44
2022-11-07T13:11:00.108Z,29.47
2022-11-07T13:12:28.791Z,29.62
2022-11-07T13:13:53.489Z,28.86
2022-11-07T13:14:57.125Z,29.18
2022-11-07T13:16:22.385Z,29.16
2022-11-07T13:17:30.617Z,29.25
2022-11-07T13:18:32.347Z,28.97
2022-11-07T13:19:40.442Z,29.69
2022-11-07T13:20:42.224Z,29.40
2022-11-07T13:21:44.094Z,29.04
2022-11-07T13:22:46.721Z,29.85
2022-11-07T13:23:48.614Z,29.48
2022-11-07T13:25:17.276Z,29.42
2022-11-07T13:26:46.574Z,29.63
2022-11-07T13:27:55.237Z,28.85
2022-11-07T13:28:59.275Z,29.37
2022-11-07T13:30:13.013Z,28.94
2022-11-07T13:31:38.729Z,29.00
2022-11-07T13:32:42.999Z,29.69
2022-11-07T13:33:44.698Z,28.80
2022-11-07T13:34:55.829Z,29.57
2022-11-07T13:36:10.770Z,28.91
2022-11-07T13:37:20.125Z,29.19
2022-11-07T13:38:24.859Z,28.89
2022-11-07T13:39:27.583Z,28.89
2022-11-07T13:40:39.415Z,29.19
2022-11-07T13:41:44.671Z,29.58
2022-11-07T13:42:48.873Z,29.62
2022-11-07T13:43:57.816Z,29.70
2022-11-07T13:45:19.020Z,29.14
2022-11-07T13:46:32.147Z,28.85
2022-11-07T13:47:41.124Z,29.32
2022-11-07T13:48:51.890Z,28.84
2022-11-07T13:50:01.953Z,28.72
2022-11-07T13:51:19.246Z,29.31
2022-11-07T13:52:32.609Z,28.67
2022-11-07T13:53:55.826Z,29.48
2022-11-07T13:55:03.929Z,29.12
2022-11-07T13:56:14.660Z,29.11
2022-11-07T13:57:27.319Z,28.79
2022-11-07T13:58:31.711Z,29.00
2022-11-07T14:00:01.792Z,29.17
2022-11-07T14:01:13.989Z,29.03
2022-11-07T14:02:45.582Z,29.35
2022-11-07T14:03:47.454Z,28.67
2022-11-07T14:05:14.801Z,28.91
2022-11-07T14:06:17.016Z,29.26
2022-11-07T14:07:24.872Z,29.15
2022-11-07T14:08:35.579Z,28.89
2022-11-07T14:09:37.367Z,29.49
2022-11-07T14:10:43.157Z,29.43
2022-11-07T14:11:46.859Z,29.37
2022-11-07T14:12:50.620Z,28.91
2022-11-07T14:13:54.605Z,29.11
2022-11-07T14:14:59.070Z,29.29
2022-11-07T14:16:05.271Z,28.99
2022-11-07T14:17:13.411Z,29.27
2022-11-07T14:18:17.509Z,29.52